Time;durP1;ratioP1;P1;durP2;ratioP2;P2;SDS_P1;SDS_P2;PMS_P1;PMS_P2;Temp;Humidity;BMP_temperature;BMP_pressure;BME280_temperature;BME280_humidity;BME280_pressure;Samples;Min_cycle;Max_cycle;Signal;HPM_P1;HPM_P2
2023/08/13 00:02:01;;;;;;;0.13;0.13;;;17.10;99.90;;;;;;4812865;29;20091;-80
2023/08/13 00:04:27;;;;;;;0.15;0.15;;;17.10;99.90;;;;;;4820609;29;20419;-81
2023/08/13 00:06:52;;;;;;;0.20;0.20;;;17.10;99.90;;;;;;4801336;29;20142;-81
2023/08/13 00:09:19;;;;;;;0.20;0.20;;;17.10;99.90;;;;;;4820103;29;20456;-80
2023/08/13 00:11:45;;;;;;;0.15;0.15;;;17.10;99.90;;;;;;4821201;29;20043;-81
2023/08/13 00:14:11;;;;;;;0.20;0.20;;;17.00;99.90;;;;;;4801191;29;20110;-80
2023/08/13 00:16:37;;;;;;;0.10;0.10;;;17.00;99.90;;;;;;4790196;29;20050;-80
2023/08/13 00:19:03;;;;;;;0.20;0.20;;;17.00;99.90;;;;;;4804303;29;20041;-80
2023/08/13 00:21:29;;;;;;;0.20;0.20;;;17.00;99.90;;;;;;4819497;29;20050;-79
2023/08/13 00:23:54;;;;;;;0.20;0.20;;;17.00;99.90;;;;;;4822059;29;20061;-80
2023/08/13 00:26:20;;;;;;;0.10;0.10;;;17.00;99.90;;;;;;4804571;29;20077;-79
2023/08/13 00:28:47;;;;;;;0.20;0.20;;;16.90;99.90;;;;;;4802595;29;20046;-80
2023/08/13 00:31:13;;;;;;;0.20;0.20;;;17.00;99.90;;;;;;4802451;29;20163;-80
2023/08/13 00:33:38;;;;;;;0.17;0.17;;;16.90;99.90;;;;;;4805033;29;20133;-79
2023/08/13 00:36:04;;;;;;;0.20;0.20;;;16.90;99.90;;;;;;4803705;29;20041;-80
2023/08/13 00:38:30;;;;;;;0.20;0.20;;;16.90;99.90;;;;;;4803540;29;20046;-80
2023/08/13 00:40:56;;;;;;;0.20;0.20;;;16.90;99.90;;;;;;4803411;29;20057;-80
2023/08/13 00:43:21;;;;;;;0.10;0.10;;;16.90;99.90;;;;;;4819918;29;20050;-80
2023/08/13 00:45:47;;;;;;;0.20;0.20;;;16.90;99.90;;;;;;4819613;29;20308;-80
2023/08/13 00:48:13;;;;;;;0.10;0.10;;;16.90;99.90;;;;;;4803381;29;20067;-79
2023/08/13 00:50:39;;;;;;;0.20;0.20;;;16.90;99.90;;;;;;4804698;29;20130;-80
2023/08/13 00:53:06;;;;;;;0.20;0.20;;;16.90;99.90;;;;;;4803757;29;20058;-80
2023/08/13 00:55:33;;;;;;;0.20;0.20;;;16.80;99.90;;;;;;4802601;29;20050;-80
2023/08/13 00:57:59;;;;;;;0.20;0.20;;;16.80;99.90;;;;;;4817559;29;20038;-81
2023/08/13 01:00:26;;;;;;;0.20;0.20;;;16.80;99.90;;;;;;4801010;29;20551;-80
2023/08/13 01:02:52;;;;;;;0.20;0.20;;;16.80;99.90;;;;;;4792672;29;20050;-81
2023/08/13 01:05:23;;;;;;;0.20;0.20;;;16.80;99.90;;;;;;4798719;29;20099;-80
2023/08/13 01:08:07;;;;;;;0.20;0.20;;;16.80;99.90;;;;;;4818108;29;20042;-81
2023/08/13 01:10:35;;;;;;;0.20;0.20;;;16.80;99.90;;;;;;4797858;29;20050;-81
2023/08/13 01:13:27;;;;;;;0.20;0.20;;;16.70;99.90;;;;;;4820850;29;20070;-81
2023/08/13 01:15:55;;;;;;;0.17;0.17;;;16.70;99.90;;;;;;4816470;29;20058;-80
2023/08/13 01:18:22;;;;;;;0.20;0.20;;;16.70;99.90;;;;;;4817729;29;20058;-81
2023/08/13 01:20:47;;;;;;;0.20;0.20;;;16.70;99.90;;;;;;4805235;29;20108;-80
2023/08/13 01:23:13;;;;;;;0.20;0.20;;;16.70;99.90;;;;;;4804146;29;20527;-80
2023/08/13 01:25:45;;;;;;;0.20;0.20;;;16.70;99.90;;;;;;4802551;29;20058;-81
2023/08/13 01:28:23;;;;;;;0.20;0.20;;;16.70;99.90;;;;;;4814499;29;20112;-80
2023/08/13 01:30:56;;;;;;;0.10;0.10;;;16.70;99.90;;;;;;4796301;29;20087;-80
2023/08/13 01:33:28;;;;;;;0.20;0.20;;;16.70;99.90;;;;;;4818606;29;20053;-81
2023/08/13 01:36:00;;;;;;;0.20;0.20;;;16.70;99.90;;;;;;4801745;29;20046;-80
2023/08/13 01:38:26;;;;;;;0.15;0.15;;;16.70;99.90;;;;;;4802718;29;20058;-80
2023/08/13 01:40:52;;;;;;;0.20;0.20;;;16.70;99.90;;;;;;4802213;29;20491;-80
2023/08/13 01:43:18;;;;;;;0.20;0.20;;;16.70;99.90;;;;;;4804310;29;20145;-79
2023/08/13 01:45:44;;;;;;;0.10;0.10;;;16.70;99.90;;;;;;4820848;29;20034;-80
2023/08/13 01:48:10;;;;;;;0.20;0.20;;;16.70;99.90;;;;;;4802463;29;20213;-80
2023/08/13 01:50:39;;;;;;;0.17;0.17;;;16.70;99.90;;;;;;4820996;29;20296;-79
2023/08/13 01:53:05;;;;;;;0.13;0.13;;;16.70;99.90;;;;;;4802725;29;20449;-80
2023/08/13 01:55:31;;;;;;;0.10;0.10;;;16.70;99.90;;;;;;4816170;29;20042;-80
2023/08/13 01:57:56;;;;;;;0.10;0.10;;;16.70;99.90;;;;;;4801073;29;20145;-81
2023/08/13 02:00:22;;;;;;;0.20;0.20;;;16.70;99.90;;;;;;4801934;29;20042;-79
2023/08/13 02:02:48;;;;;;;0.10;0.10;;;16.70;99.90;;;;;;4819238;29;20239;-80
2023/08/13 02:05:14;;;;;;;0.13;0.13;;;16.70;99.90;;;;;;4802002;29;20061;-80
2023/08/13 02:07:39;;;;;;;0.10;0.10;;;16.70;99.90;;;;;;4806364;29;20121;-80
2023/08/13 02:10:05;;;;;;;0.20;0.20;;;16.70;99.90;;;;;;4805141;29;20055;-80
2023/08/13 02:12:31;;;;;;;0.20;0.20;;;16.60;99.90;;;;;;4804340;29;20050;-80
2023/08/13 02:14:57;;;;;;;0.10;0.10;;;16.60;99.90;;;;;;4802200;29;20062;-80
2023/08/13 02:17:22;;;;;;;0.20;0.20;;;16.60;99.90;;;;;;4805103;29;20142;-80
2023/08/13 02:19:48;;;;;;;0.17;0.17;;;16.60;99.90;;;;;;4820943;29;20082;-80
2023/08/13 02:22:14;;;;;;;0.20;0.20;;;16.60;99.90;;;;;;4823347;29;20615;-80
2023/08/13 02:24:40;;;;;;;0.20;0.20;;;16.60;99.90;;;;;;4823569;29;20054;-80
2023/08/13 02:27:05;;;;;;;0.10;0.10;;;16.60;99.90;;;;;;4819481;29;20041;-80
2023/08/13 02:29:31;;;;;;;0.20;0.20;;;16.60;99.90;;;;;;4803585;29;20384;-80
2023/08/13 02:31:57;;;;;;;0.10;0.10;;;16.60;99.90;;;;;;4802177;29;20103;-80
2023/08/13 02:34:23;;;;;;;0.20;0.20;;;16.60;99.90;;;;;;4802415;29;20072;-80
2023/08/13 02:36:49;;;;;;;0.20;0.20;;;16.60;99.90;;;;;;4801271;29;20049;-80
2023/08/13 02:39:15;;;;;;;0.10;0.10;;;16.60;99.90;;;;;;4821777;29;20057;-80
2023/08/13 02:41:41;;;;;;;0.20;0.20;;;16.60;99.90;;;;;;4803593;29;20415;-80
2023/08/13 02:44:06;;;;;;;0.13;0.13;;;16.60;99.90;;;;;;4802788;29;20077;-79
2023/08/13 02:46:32;;;;;;;0.17;0.17;;;16.60;99.90;;;;;;4803467;29;20050;-80
2023/08/13 02:48:58;;;;;;;0.20;0.20;;;16.50;99.90;;;;;;4821681;29;20125;-80
2023/08/13 02:51:24;;;;;;;0.20;0.20;;;16.50;99.90;;;;;;4805259;29;20675;-79
2023/08/13 02:53:50;;;;;;;0.20;0.20;;;16.50;99.90;;;;;;4796955;29;20055;-80
2023/08/13 02:56:16;;;;;;;0.20;0.20;;;16.50;99.90;;;;;;4812805;29;20049;-79
2023/08/13 02:58:42;;;;;;;0.20;0.20;;;16.50;99.90;;;;;;4798571;29;20042;-80
2023/08/13 03:01:08;;;;;;;0.20;0.20;;;16.50;99.90;;;;;;4805192;29;20053;-81
2023/08/13 03:03:34;;;;;;;0.10;0.10;;;16.50;99.90;;;;;;4815316;29;20133;-81
2023/08/13 03:05:59;;;;;;;0.20;0.20;;;16.50;99.90;;;;;;4818871;29;20195;-80
2023/08/13 03:08:25;;;;;;;0.20;0.20;;;16.50;99.90;;;;;;4805508;29;20043;-80
2023/08/13 03:10:51;;;;;;;0.10;0.10;;;16.50;99.90;;;;;;4802071;29;20046;-81
2023/08/13 03:13:17;;;;;;;0.10;0.10;;;16.50;99.90;;;;;;4820738;29;20495;-80
2023/08/13 03:15:44;;;;;;;0.10;0.10;;;16.50;99.90;;;;;;4802321;29;20042;-80
2023/08/13 03:18:10;;;;;;;0.20;0.20;;;16.50;99.90;;;;;;4819999;29;20091;-80
2023/08/13 03:20:36;;;;;;;0.20;0.20;;;16.50;99.90;;;;;;4804571;29;20073;-81
2023/08/13 03:23:02;;;;;;;0.17;0.17;;;16.50;99.90;;;;;;4809243;29;20046;-80
2023/08/13 03:25:28;;;;;;;0.13;0.13;;;16.50;99.90;;;;;;4813293;29;20098;-80
2023/08/13 03:27:53;;;;;;;0.10;0.10;;;16.50;99.90;;;;;;4797785;29;20038;-79
2023/08/13 03:30:19;;;;;;;0.20;0.20;;;16.50;99.90;;;;;;4819015;29;20833;-80
2023/08/13 03:32:45;;;;;;;0.20;0.20;;;16.40;99.90;;;;;;4805981;29;20411;-80
2023/08/13 03:35:10;;;;;;;0.10;0.10;;;16.50;99.90;;;;;;4821238;29;20050;-80
2023/08/13 03:37:36;;;;;;;0.10;0.10;;;16.40;99.90;;;;;;4804946;29;20267;-79
2023/08/13 03:40:02;;;;;;;0.22;0.22;;;16.40;99.90;;;;;;4804981;29;20050;-81
2023/08/13 03:42:27;;;;;;;0.10;0.10;;;16.40;99.90;;;;;;4803598;29;20448;-80
2023/08/13 03:44:55;;;;;;;0.20;0.20;;;16.40;99.90;;;;;;4795225;29;20061;-81
2023/08/13 03:47:21;;;;;;;0.20;0.20;;;16.40;99.90;;;;;;4815012;29;20055;-81
2023/08/13 03:49:46;;;;;;;0.20;0.20;;;16.40;99.90;;;;;;4802507;29;20054;-80
2023/08/13 03:52:12;;;;;;;0.20;0.20;;;16.40;99.90;;;;;;4802249;29;20058;-80
2023/08/13 03:54:38;;;;;;;0.20;0.20;;;16.40;99.90;;;;;;4820595;29;20054;-81
2023/08/13 03:57:03;;;;;;;0.20;0.20;;;16.40;99.90;;;;;;4801348;29;20042;-80
2023/08/13 03:59:29;;;;;;;0.20;0.20;;;16.30;99.90;;;;;;4802844;29;20479;-80
2023/08/13 04:01:57;;;;;;;0.13;0.13;;;16.40;99.90;;;;;;4802954;29;20133;-81
2023/08/13 04:04:23;;;;;;;0.20;0.20;;;16.40;99.90;;;;;;4819858;29;20054;-79
2023/08/13 04:06:49;;;;;;;0.10;0.10;;;16.40;99.90;;;;;;4792461;29;20042;-79
2023/08/13 04:09:14;;;;;;;0.20;0.20;;;16.40;99.90;;;;;;4821346;29;20039;-81
2023/08/13 04:11:40;;;;;;;0.15;0.15;;;16.40;99.90;;;;;;4819345;29;20054;-80
2023/08/13 04:14:06;;;;;;;0.20;0.20;;;16.40;99.90;;;;;;4817643;29;20498;-80
2023/08/13 04:16:31;;;;;;;0.20;0.20;;;16.40;99.90;;;;;;4804661;29;20038;-80
2023/08/13 04:18:57;;;;;;;0.20;0.20;;;16.30;99.90;;;;;;4821135;29;20053;-81
2023/08/13 04:21:26;;;;;;;0.10;0.10;;;16.40;99.90;;;;;;4803844;29;20141;-80
2023/08/13 04:23:56;;;;;;;0.20;0.20;;;16.40;99.90;;;;;;4793215;29;20111;-80
2023/08/13 04:26:22;;;;;;;0.10;0.10;;;16.40;99.90;;;;;;4801649;29;20063;-79
2023/08/13 04:28:48;;;;;;;0.15;0.15;;;16.40;99.90;;;;;;4814173;29;20043;-80
2023/08/13 04:31:15;;;;;;;0.15;0.15;;;16.40;99.90;;;;;;4799635;29;20046;-80
2023/08/13 04:33:41;;;;;;;0.10;0.10;;;16.40;99.90;;;;;;4802228;29;20090;-80
2023/08/13 04:36:06;;;;;;;0.10;0.10;;;16.40;99.90;;;;;;4818741;29;20134;-80
2023/08/13 04:38:32;;;;;;;0.10;0.10;;;16.40;99.90;;;;;;4802441;29;20100;-80
2023/08/13 04:40:58;;;;;;;0.15;0.15;;;16.40;99.90;;;;;;4799139;29;20049;-80
2023/08/13 04:43:23;;;;;;;0.20;0.20;;;16.50;99.90;;;;;;4798645;29;20488;-80
2023/08/13 04:45:50;;;;;;;0.17;0.17;;;16.50;99.90;;;;;;4802669;29;20049;-80
2023/08/13 04:48:17;;;;;;;0.10;0.10;;;16.50;99.90;;;;;;4813064;29;20056;-80
2023/08/13 04:50:43;;;;;;;0.20;0.20;;;16.60;99.90;;;;;;4798416;29;20946;-79
2023/08/13 04:53:09;;;;;;;0.10;0.10;;;16.50;99.90;;;;;;4802476;29;20111;-81
2023/08/13 04:55:34;;;;;;;0.20;0.20;;;16.60;99.90;;;;;;4816252;29;20567;-80
2023/08/13 04:58:00;;;;;;;0.15;0.15;;;16.60;99.90;;;;;;4816623;29;20061;-81
2023/08/13 05:00:26;;;;;;;0.20;0.20;;;16.60;99.90;;;;;;4798894;29;20039;-79
2023/08/13 05:02:51;;;;;;;0.20;0.20;;;16.60;99.90;;;;;;4815249;29;20127;-80
2023/08/13 05:05:17;;;;;;;0.20;0.20;;;16.70;99.90;;;;;;4815729;29;20146;-79
2023/08/13 05:07:43;;;;;;;0.20;0.20;;;16.70;99.90;;;;;;4804455;29;20042;-80
2023/08/13 05:10:09;;;;;;;0.10;0.10;;;16.70;99.90;;;;;;4817630;29;20064;-81
2023/08/13 05:12:35;;;;;;;0.20;0.20;;;16.70;99.90;;;;;;4816154;29;20064;-80
2023/08/13 05:15:00;;;;;;;0.20;0.20;;;16.70;99.90;;;;;;4805569;29;20054;-80
2023/08/13 05:17:26;;;;;;;0.13;0.13;;;16.70;99.90;;;;;;4817728;29;20062;-78
2023/08/13 05:19:52;;;;;;;0.20;0.20;;;16.70;99.90;;;;;;4812148;29;20487;-80
2023/08/13 05:22:18;;;;;;;0.20;0.20;;;16.80;99.90;;;;;;4812824;29;20054;-80
2023/08/13 05:24:44;;;;;;;0.20;0.20;;;16.80;99.90;;;;;;4801808;29;20066;-79
2023/08/13 05:27:09;;;;;;;0.20;0.20;;;16.80;99.90;;;;;;4820398;29;20049;-80
2023/08/13 05:29:35;;;;;;;0.20;0.20;;;16.90;99.90;;;;;;4800508;29;20078;-80
2023/08/13 05:32:02;;;;;;;0.20;0.20;;;16.90;99.90;;;;;;4808607;29;20099;-80
2023/08/13 05:34:27;;;;;;;0.20;0.20;;;16.90;99.90;;;;;;4815934;29;20035;-81
2023/08/13 05:36:53;;;;;;;0.20;0.20;;;16.90;99.90;;;;;;4799435;29;20046;-79
2023/08/13 05:39:19;;;;;;;0.28;0.25;;;16.90;99.90;;;;;;4819165;29;20047;-79
2023/08/13 05:41:45;;;;;;;0.20;0.20;;;16.90;99.90;;;;;;4801125;29;20534;-80
2023/08/13 05:44:10;;;;;;;0.20;0.20;;;16.90;99.90;;;;;;4816709;29;20266;-81
2023/08/13 05:46:36;;;;;;;0.20;0.20;;;16.90;99.90;;;;;;4798372;29;20051;-79
2023/08/13 05:49:04;;;;;;;0.20;0.20;;;16.90;99.90;;;;;;4800661;29;20046;-80
2023/08/13 05:51:30;;;;;;;0.20;0.20;;;16.90;99.90;;;;;;4793542;29;20077;-79
2023/08/13 05:53:56;;;;;;;0.10;0.10;;;16.90;99.90;;;;;;4811745;29;20567;-80
2023/08/13 05:56:21;;;;;;;0.20;0.20;;;16.90;99.90;;;;;;4794656;29;20051;-80
2023/08/13 05:58:47;;;;;;;0.15;0.15;;;16.90;99.90;;;;;;4799250;29;20134;-79
2023/08/13 06:01:13;;;;;;;0.20;0.20;;;16.90;99.90;;;;;;4796157;29;20137;-80
2023/08/13 06:03:38;;;;;;;0.20;0.20;;;17.00;99.90;;;;;;4795554;29;20047;-80
2023/08/13 06:06:04;;;;;;;0.20;0.20;;;16.90;99.90;;;;;;4799832;29;20130;-80
2023/08/13 06:08:30;;;;;;;0.20;0.20;;;17.00;99.90;;;;;;4800643;29;20618;-79
2023/08/13 06:10:55;;;;;;;0.20;0.20;;;17.00;99.90;;;;;;4796605;29;20038;-80
2023/08/13 06:13:21;;;;;;;0.20;0.20;;;16.90;99.90;;;;;;4801901;29;20526;-79
2023/08/13 06:15:47;;;;;;;0.10;0.10;;;16.90;99.90;;;;;;4801421;29;20104;-80
2023/08/13 06:18:12;;;;;;;0.20;0.20;;;17.00;99.90;;;;;;4802196;29;20111;-79
2023/08/13 06:20:38;;;;;;;0.20;0.20;;;17.00;99.90;;;;;;4816787;29;20058;-79
2023/08/13 06:23:04;;;;;;;0.20;0.20;;;16.90;99.90;;;;;;4800781;29;20090;-80
2023/08/13 06:25:30;;;;;;;0.10;0.10;;;17.00;99.90;;;;;;4795237;29;20404;-80
2023/08/13 06:27:56;;;;;;;0.15;0.15;;;16.90;99.90;;;;;;4799791;29;20046;-79
2023/08/13 06:30:21;;;;;;;0.20;0.20;;;16.90;99.90;;;;;;4797569;29;20410;-79
2023/08/13 06:32:47;;;;;;;0.20;0.20;;;16.90;99.90;;;;;;4802657;29;20038;-79
2023/08/13 06:35:15;;;;;;;0.20;0.20;;;17.00;99.90;;;;;;4801123;29;20491;-80
2023/08/13 06:37:41;;;;;;;0.17;0.17;;;17.00;99.90;;;;;;4799539;29;20051;-79
2023/08/13 06:40:07;;;;;;;0.10;0.10;;;17.10;99.90;;;;;;4803515;29;20061;-79
2023/08/13 06:42:33;;;;;;;0.10;0.10;;;17.20;99.90;;;;;;4798093;29;20054;-80
2023/08/13 06:44:58;;;;;;;0.10;0.10;;;17.20;99.90;;;;;;4809299;29;20167;-78
2023/08/13 06:47:24;;;;;;;0.20;0.20;;;17.30;99.90;;;;;;4815309;29;20054;-78
2023/08/13 06:49:49;;;;;;;0.20;0.20;;;17.40;99.90;;;;;;4804308;29;20049;-79
2023/08/13 06:52:16;;;;;;;0.20;0.20;;;17.40;99.90;;;;;;4800039;29;20079;-79
2023/08/13 06:54:41;;;;;;;0.20;0.20;;;17.50;99.90;;;;;;4805502;29;20092;-79
2023/08/13 06:57:08;;;;;;;0.20;0.20;;;17.50;99.90;;;;;;4801928;29;20066;-80
2023/08/13 06:59:33;;;;;;;0.20;0.20;;;17.50;99.90;;;;;;4821707;29;20046;-80
2023/08/13 07:01:59;;;;;;;0.20;0.20;;;17.50;99.90;;;;;;4806796;29;20086;-80
2023/08/13 07:04:25;;;;;;;0.20;0.20;;;17.50;99.90;;;;;;4806847;29;20582;-79
2023/08/13 07:06:50;;;;;;;0.20;0.20;;;17.40;99.90;;;;;;4802519;29;20602;-79
2023/08/13 07:09:16;;;;;;;0.20;0.20;;;17.50;99.90;;;;;;4815556;29;20050;-80
2023/08/13 07:11:42;;;;;;;0.22;0.22;;;17.50;99.90;;;;;;4805042;29;20061;-79
2023/08/13 07:14:08;;;;;;;0.20;0.20;;;17.50;99.90;;;;;;4821566;29;20073;-80
2023/08/13 07:16:34;;;;;;;0.20;0.20;;;17.60;99.90;;;;;;4820129;29;20046;-80
2023/08/13 07:19:00;;;;;;;0.13;0.13;;;17.60;99.90;;;;;;4801285;29;20527;-79
2023/08/13 07:21:26;;;;;;;0.20;0.20;;;17.70;99.90;;;;;;4789097;29;20063;-81
2023/08/13 07:23:52;;;;;;;0.20;0.20;;;17.80;99.90;;;;;;4819740;29;20535;-80
2023/08/13 07:26:18;;;;;;;0.20;0.20;;;17.80;99.90;;;;;;4802816;29;20538;-78
2023/08/13 07:28:44;;;;;;;0.20;0.20;;;17.90;99.90;;;;;;4803652;29;20407;-80
2023/08/13 07:31:10;;;;;;;0.20;0.20;;;17.90;99.90;;;;;;4805775;29;20410;-80
2023/08/13 07:33:35;;;;;;;0.20;0.20;;;18.00;99.90;;;;;;4823357;29;20054;-80
2023/08/13 07:36:05;;;;;;;0.20;0.20;;;18.10;99.90;;;;;;4804439;29;20407;-79
2023/08/13 07:38:30;;;;;;;0.20;0.20;;;18.10;99.90;;;;;;4817776;29;20078;-78
2023/08/13 07:40:57;;;;;;;0.20;0.20;;;18.20;99.90;;;;;;4822514;29;20078;-79
2023/08/13 07:43:24;;;;;;;0.20;0.20;;;18.30;99.90;;;;;;4820257;29;20407;-80
2023/08/13 07:45:50;;;;;;;0.10;0.10;;;18.30;99.90;;;;;;4804942;29;20046;-80
2023/08/13 07:48:17;;;;;;;0.20;0.20;;;18.40;99.90;;;;;;4806232;29;20666;-79
2023/08/13 07:50:43;;;;;;;0.10;0.10;;;18.40;99.90;;;;;;4805947;29;20495;-80
2023/08/13 07:53:09;;;;;;;0.20;0.20;;;18.40;99.90;;;;;;4811504;29;20042;-80
2023/08/13 07:55:35;;;;;;;0.15;0.15;;;18.50;99.90;;;;;;4788875;29;20514;-81
2023/08/13 07:58:00;;;;;;;0.20;0.20;;;18.50;99.90;;;;;;4789075;29;20035;-80
2023/08/13 08:00:26;;;;;;;0.20;0.20;;;18.60;99.90;;;;;;4804553;29;20186;-80
2023/08/13 08:02:53;;;;;;;0.20;0.20;;;18.60;99.90;;;;;;4821152;29;20089;-79
2023/08/13 08:05:20;;;;;;;0.20;0.20;;;18.70;99.90;;;;;;4804852;29;20495;-80
2023/08/13 08:07:45;;;;;;;0.20;0.20;;;18.70;99.90;;;;;;4806439;29;20050;-80
2023/08/13 08:10:11;;;;;;;0.20;0.20;;;18.80;99.90;;;;;;4801506;29;20057;-80
2023/08/13 08:12:37;;;;;;;0.15;0.15;;;18.80;99.90;;;;;;4821000;29;20078;-79
2023/08/13 08:15:05;;;;;;;0.20;0.20;;;18.90;99.90;;;;;;4803902;29;20050;-79
2023/08/13 08:17:31;;;;;;;0.20;0.20;;;19.00;99.90;;;;;;4820706;29;20035;-80
2023/08/13 08:19:56;;;;;;;0.20;0.20;;;19.10;99.90;;;;;;4805052;29;20051;-78
2023/08/13 08:22:22;;;;;;;0.20;0.20;;;19.10;99.90;;;;;;4822013;29;20065;-79
2023/08/13 08:24:50;;;;;;;0.10;0.10;;;19.20;99.90;;;;;;4824171;29;20092;-79
2023/08/13 08:27:16;;;;;;;0.20;0.20;;;19.20;99.90;;;;;;4822641;29;20058;-79
2023/08/13 08:29:42;;;;;;;0.20;0.20;;;19.20;99.90;;;;;;4823756;29;20050;-79
2023/08/13 08:32:07;;;;;;;0.20;0.20;;;19.20;99.90;;;;;;4824725;29;20052;-79
2023/08/13 08:34:34;;;;;;;0.20;0.20;;;19.30;99.90;;;;;;4834943;29;20398;-79
2023/08/13 08:37:00;;;;;;;0.20;0.20;;;19.40;99.90;;;;;;4839426;29;20057;-79
2023/08/13 08:39:26;;;;;;;0.10;0.10;;;19.40;99.90;;;;;;4855073;29;20053;-79
2023/08/13 08:41:56;;;;;;;0.20;0.20;;;19.50;99.90;;;;;;4831677;29;20061;-78
2023/08/13 08:44:23;;;;;;;0.20;0.20;;;19.60;99.90;;;;;;4820636;29;20058;-79
2023/08/13 08:46:50;;;;;;;0.20;0.20;;;19.70;99.90;;;;;;4831968;29;20052;-78
2023/08/13 08:49:18;;;;;;;0.20;0.20;;;19.70;99.90;;;;;;4816985;29;20077;-79
2023/08/13 08:51:45;;;;;;;0.20;0.20;;;19.80;99.90;;;;;;4824468;29;20057;-79
2023/08/13 08:54:11;;;;;;;0.20;0.20;;;19.80;99.90;;;;;;4839741;29;20547;-77
2023/08/13 08:56:37;;;;;;;0.20;0.20;;;19.90;99.90;;;;;;4839183;29;20057;-79
2023/08/13 08:59:05;;;;;;;0.20;0.20;;;19.90;99.90;;;;;;4823158;29;20372;-79
2023/08/13 09:01:30;;;;;;;0.20;0.20;;;20.00;99.90;;;;;;4822336;29;20479;-79
2023/08/13 09:03:56;;;;;;;0.20;0.20;;;20.00;99.90;;;;;;4823636;29;20046;-78
2023/08/13 09:06:22;;;;;;;0.20;0.20;;;20.00;99.90;;;;;;4823925;29;20524;-79
2023/08/13 09:08:48;;;;;;;0.20;0.20;;;20.00;99.90;;;;;;4839311;29;20498;-79
2023/08/13 09:11:14;;;;;;;0.20;0.20;;;20.10;99.90;;;;;;4836124;29;20073;-78
2023/08/13 09:13:50;;;;;;;0.20;0.20;;;20.10;99.90;;;;;;4839302;29;20089;-78
2023/08/13 09:16:16;;;;;;;0.20;0.20;;;20.10;99.90;;;;;;4821562;29;20508;-78
2023/08/13 09:18:42;;;;;;;0.20;0.20;;;20.20;99.90;;;;;;4822417;29;20098;-78
2023/08/13 09:21:09;;;;;;;0.20;0.20;;;20.20;99.90;;;;;;4823474;29;20452;-79
2023/08/13 09:23:39;;;;;;;0.10;0.10;;;20.30;99.90;;;;;;4823007;29;20053;-79
2023/08/13 09:26:05;;;;;;;0.20;0.20;;;20.30;99.90;;;;;;4819908;29;20817;-84
2023/08/13 09:28:31;;;;;;;0.20;0.20;;;20.40;99.90;;;;;;4837488;29;20316;-78
2023/08/13 09:31:00;;;;;;;0.20;0.20;;;20.50;99.90;;;;;;4817606;29;20050;-78
2023/08/13 09:33:26;;;;;;;0.20;0.20;;;20.60;99.90;;;;;;4822870;29;20054;-79
2023/08/13 09:35:51;;;;;;;0.20;0.20;;;20.60;99.90;;;;;;4829100;29;20585;-79
2023/08/13 09:38:17;;;;;;;0.20;0.20;;;20.60;99.90;;;;;;4832357;29;20141;-77
2023/08/13 09:40:45;;;;;;;0.20;0.20;;;20.70;99.90;;;;;;4838920;29;20083;-79
2023/08/13 09:43:15;;;;;;;0.20;0.20;;;20.70;99.90;;;;;;4819786;29;20050;-79
2023/08/13 09:45:43;;;;;;;0.25;0.25;;;20.70;99.90;;;;;;4825572;29;20569;-78
2023/08/13 09:48:12;;;;;;;0.35;0.30;;;20.70;99.90;;;;;;4839992;29;20050;-78
2023/08/13 09:50:42;;;;;;;0.20;0.20;;;20.80;99.90;;;;;;4815906;29;20042;-77
2023/08/13 09:53:12;;;;;;;0.20;0.20;;;20.90;99.90;;;;;;4827670;29;20106;-78
2023/08/13 09:55:50;;;;;;;0.20;0.20;;;20.90;99.90;;;;;;4821223;29;20190;-79
2023/08/13 09:58:17;;;;;;;0.20;0.20;;;21.00;99.90;;;;;;4820956;29;20058;-79
2023/08/13 10:00:45;;;;;;;0.20;0.20;;;21.10;99.90;;;;;;4825701;29;20049;-78
2023/08/13 10:03:10;;;;;;;0.20;0.20;;;21.20;99.90;;;;;;4828234;29;20533;-78
2023/08/13 10:05:37;;;;;;;0.20;0.20;;;21.20;99.90;;;;;;4831768;29;20070;-78
2023/08/13 10:08:05;;;;;;;0.20;0.20;;;21.30;99.90;;;;;;4838079;29;20126;-78
2023/08/13 10:10:31;;;;;;;0.20;0.20;;;21.30;99.90;;;;;;4807848;29;20054;-78
2023/08/13 10:12:57;;;;;;;0.20;0.20;;;21.40;99.90;;;;;;4817123;29;20229;-79
2023/08/13 10:15:24;;;;;;;0.20;0.20;;;21.40;99.90;;;;;;4814868;29;20050;-78
2023/08/13 10:17:51;;;;;;;0.20;0.20;;;21.50;99.90;;;;;;4812670;29;20538;-79
2023/08/13 10:20:18;;;;;;;0.20;0.20;;;21.60;99.90;;;;;;4810441;29;20065;-79
2023/08/13 10:22:45;;;;;;;0.20;0.20;;;21.60;99.90;;;;;;4824758;29;20512;-78
2023/08/13 10:25:26;;;;;;;0.20;0.20;;;21.60;99.90;;;;;;4840934;29;20136;-78
2023/08/13 10:27:56;;;;;;;0.20;0.20;;;21.60;99.90;;;;;;4835278;29;20080;-80
2023/08/13 10:30:22;;;;;;;0.20;0.20;;;21.70;99.90;;;;;;4830953;29;20045;-80
2023/08/13 10:32:50;;;;;;;0.20;0.20;;;21.80;99.90;;;;;;4814966;29;20055;-81
2023/08/13 10:35:34;;;;;;;0.20;0.20;;;21.90;99.90;;;;;;4834649;29;20450;-79
2023/08/13 10:38:02;;;;;;;0.20;0.20;;;22.00;99.90;;;;;;4811056;29;20046;-80
2023/08/13 10:40:28;;;;;;;0.20;0.20;;;22.00;99.90;;;;;;4813438;29;20046;-80
2023/08/13 10:42:58;;;;;;;0.20;0.20;;;22.00;99.90;;;;;;4816161;29;20073;-80
2023/08/13 10:45:28;;;;;;;0.20;0.20;;;22.00;99.90;;;;;;4831542;29;20058;-79
2023/08/13 10:47:56;;;;;;;0.20;0.20;;;21.90;99.90;;;;;;4816173;29;20141;-81
2023/08/13 10:50:43;;;;;;;0.20;0.20;;;22.00;99.90;;;;;;4817159;29;20511;-81
2023/08/13 10:53:24;;;;;;;0.20;0.20;;;22.00;99.90;;;;;;4838194;29;20042;-80
2023/08/13 10:55:52;;;;;;;0.20;0.20;;;21.90;99.90;;;;;;4840732;29;20045;-80
2023/08/13 10:58:37;;;;;;;0.20;0.20;;;21.90;99.90;;;;;;4822062;29;20378;-80
2023/08/13 11:01:09;;;;;;;0.20;0.20;;;21.90;99.90;;;;;;4841232;29;20053;-80
2023/08/13 11:03:41;;;;;;;0.20;0.20;;;21.90;99.90;;;;;;4822467;29;20054;-80
2023/08/13 11:06:07;;;;;;;0.20;0.20;;;22.00;99.90;;;;;;4825661;29;20146;-80
2023/08/13 11:08:33;;;;;;;0.20;0.20;;;22.00;99.90;;;;;;4822152;29;20137;-80
2023/08/13 11:11:00;;;;;;;0.20;0.20;;;22.10;99.90;;;;;;4841227;29;20082;-79
2023/08/13 11:13:25;;;;;;;0.20;0.20;;;22.10;99.90;;;;;;4813132;29;20090;-80
2023/08/13 11:15:55;;;;;;;0.20;0.20;;;22.10;99.90;;;;;;4822698;29;20050;-79
2023/08/13 11:18:22;;;;;;;0.20;0.20;;;22.10;99.90;;;;;;4840308;29;20067;-80
2023/08/13 11:20:49;;;;;;;0.20;0.20;;;22.10;99.90;;;;;;4819016;29;20069;-80
2023/08/13 11:23:16;;;;;;;0.20;0.20;;;22.10;99.90;;;;;;4830431;29;20042;-79
2023/08/13 11:25:43;;;;;;;0.20;0.20;;;22.10;99.90;;;;;;4821598;29;20475;-80
2023/08/13 11:28:09;;;;;;;0.20;0.20;;;22.20;99.90;;;;;;4822003;29;20049;-80
2023/08/13 11:30:43;;;;;;;0.20;0.20;;;22.20;99.90;;;;;;4822661;29;20148;-80
2023/08/13 11:33:10;;;;;;;0.20;0.20;;;22.30;99.90;;;;;;4837268;29;20110;-81
2023/08/13 11:35:35;;;;;;;0.20;0.20;;;22.40;99.90;;;;;;4822544;29;20824;-78
2023/08/13 11:38:02;;;;;;;0.20;0.20;;;22.40;99.90;;;;;;4823405;29;20050;-79
2023/08/13 11:40:28;;;;;;;0.20;0.20;;;22.30;99.90;;;;;;4819366;29;20042;-80
2023/08/13 11:42:56;;;;;;;0.20;0.20;;;22.30;99.90;;;;;;4824195;29;20045;-79
2023/08/13 11:45:25;;;;;;;0.20;0.20;;;22.30;99.90;;;;;;4836919;29;20074;-79
2023/08/13 11:47:52;;;;;;;0.20;0.20;;;22.30;99.90;;;;;;4822344;29;20050;-79
2023/08/13 11:50:23;;;;;;;0.30;0.30;;;22.30;99.90;;;;;;4838505;29;20062;-80
2023/08/13 11:53:07;;;;;;;0.20;0.20;;;22.40;99.90;;;;;;4836467;29;20046;-79
2023/08/13 11:55:33;;;;;;;0.20;0.20;;;22.40;99.90;;;;;;4822470;29;20062;-79
2023/08/13 11:57:59;;;;;;;0.20;0.20;;;22.30;99.90;;;;;;4820756;29;20050;-78
2023/08/13 12:00:29;;;;;;;0.20;0.20;;;22.30;99.90;;;;;;4823377;29;20049;-79
2023/08/13 12:02:59;;;;;;;0.20;0.20;;;22.20;99.90;;;;;;4842985;29;20555;-78
2023/08/13 12:05:30;;;;;;;0.20;0.20;;;22.20;99.90;;;;;;4823739;29;20073;-79
2023/08/13 12:07:57;;;;;;;0.20;0.20;;;22.20;99.90;;;;;;4822232;29;20054;-79
2023/08/13 12:10:23;;;;;;;0.20;0.20;;;22.20;99.90;;;;;;4822904;29;20077;-79
2023/08/13 12:12:49;;;;;;;0.20;0.20;;;22.20;99.90;;;;;;4833987;29;20077;-80
2023/08/13 12:15:22;;;;;;;0.20;0.20;;;22.20;99.90;;;;;;4819627;29;20049;-79
2023/08/13 12:17:47;;;;;;;0.20;0.20;;;22.20;99.90;;;;;;4838895;29;20685;-79
2023/08/13 12:20:13;;;;;;;0.20;0.20;;;22.20;99.90;;;;;;4824326;29;20110;-79
2023/08/13 12:22:39;;;;;;;0.20;0.20;;;22.30;99.90;;;;;;4820310;29;20056;-81
2023/08/13 12:25:06;;;;;;;0.20;0.20;;;22.30;99.90;;;;;;4839105;29;20085;-79
2023/08/13 12:27:32;;;;;;;0.20;0.20;;;22.30;99.90;;;;;;4823062;29;20088;-79
2023/08/13 12:29:58;;;;;;;0.20;0.20;;;22.30;99.90;;;;;;4839595;29;20050;-79
2023/08/13 12:32:24;;;;;;;0.20;0.20;;;22.20;99.90;;;;;;4836957;29;20068;-80
2023/08/13 12:34:49;;;;;;;0.20;0.20;;;22.20;99.90;;;;;;4823241;29;20505;-79
2023/08/13 12:37:15;;;;;;;0.20;0.20;;;22.10;99.90;;;;;;4813941;29;20503;-79
2023/08/13 12:39:41;;;;;;;0.20;0.20;;;22.00;99.90;;;;;;4839045;29;20085;-79
2023/08/13 12:42:06;;;;;;;0.20;0.20;;;21.90;99.90;;;;;;4836720;29;20486;-79
2023/08/13 12:44:32;;;;;;;0.20;0.20;;;22.00;99.90;;;;;;4839030;29;20057;-79
2023/08/13 12:46:58;;;;;;;0.20;0.20;;;22.00;99.90;;;;;;4852055;29;20506;-79